createdAt,value
2019-05-15T00:00:53.821Z,44.39
2019-05-15T00:01:53.820Z,44.39
2019-05-15T00:02:53.814Z,44.90
2019-05-15T00:03:53.776Z,44.29
2019-05-15T00:04:53.804Z,44.29
2019-05-15T00:05:53.879Z,44.29
2019-05-15T00:06:53.824Z,44.31
2019-05-15T00:07:53.838Z,45.33
2019-05-15T00:08:53.770Z,44.62
2019-05-15T00:09:53.778Z,44.51
2019-05-15T00:10:53.785Z,44.71
2019-05-15T00:11:53.746Z,45.13
2019-05-15T00:12:54.104Z,45.13
2019-05-15T00:13:53.674Z,45.64
2019-05-15T00:14:53.766Z,44.92
2019-05-15T00:15:53.654Z,44.92
2019-05-15T00:16:53.710Z,44.92
2019-05-15T00:17:53.687Z,44.92
2019-05-15T00:18:53.612Z,44.71
2019-05-15T00:19:53.595Z,44.62
2019-05-15T00:20:53.587Z,46.36
2019-05-15T00:21:53.574Z,44.92
2019-05-15T00:22:53.603Z,45.95
2019-05-15T00:23:53.588Z,45.84
2019-05-15T00:24:53.537Z,44.62
2019-05-15T00:25:53.534Z,45.84
2019-05-15T00:26:53.518Z,45.95
2019-05-15T00:27:53.553Z,45.74
2019-05-15T00:28:53.505Z,45.74
2019-05-15T00:29:53.491Z,46.46
2019-05-15T00:30:53.480Z,45.74
2019-05-15T00:31:53.473Z,46.46
2019-05-15T00:32:53.489Z,45.64
2019-05-15T00:33:53.482Z,45.54
2019-05-15T00:34:53.428Z,45.64
2019-05-15T00:35:53.415Z,46.87
2019-05-15T00:36:53.400Z,46.77
2019-05-15T00:37:53.387Z,46.87
2019-05-15T00:38:53.407Z,46.56
2019-05-15T00:39:53.372Z,46.25
2019-05-15T00:40:53.360Z,45.03
2019-05-15T00:41:54.755Z,45.84
2019-05-15T00:42:53.374Z,46.77
2019-05-15T00:43:53.328Z,45.95
2019-05-15T00:44:53.330Z,46.25
2019-05-15T00:45:53.300Z,45.64
2019-05-15T00:46:53.292Z,46.36
2019-05-15T00:47:53.280Z,45.43
2019-05-15T00:48:53.302Z,45.64
2019-05-15T00:49:53.261Z,45.95
2019-05-15T00:50:53.243Z,46.56
2019-05-15T00:51:53.233Z,46.79
2019-05-15T00:52:53.232Z,46.67
2019-05-15T00:53:53.241Z,46.56
2019-05-15T00:54:53.207Z,46.56
2019-05-15T00:55:53.196Z,46.46
2019-05-15T00:56:53.181Z,46.77
2019-05-15T00:57:53.169Z,47.08
2019-05-15T00:58:53.192Z,46.87
2019-05-15T00:59:53.146Z,46.46
2019-05-15T01:00:53.185Z,46.03
2019-05-15T01:01:53.131Z,46.05
2019-05-15T01:02:53.149Z,46.46
2019-05-15T01:03:53.108Z,46.46
2019-05-15T01:04:53.100Z,45.95
2019-05-15T01:05:53.086Z,45.84
2019-05-15T01:06:53.089Z,45.74
2019-05-15T01:07:53.086Z,46.05
2019-05-15T01:08:53.083Z,46.05
2019-05-15T01:09:53.038Z,45.95
2019-05-15T01:10:53.025Z,46.46
2019-05-15T01:11:53.026Z,46.15
2019-05-15T01:12:53.010Z,45.64
2019-05-15T01:13:53.034Z,45.87
2019-05-15T01:14:52.988Z,46.17
2019-05-15T01:15:52.977Z,45.84
2019-05-15T01:16:52.963Z,45.97
2019-05-15T01:17:52.957Z,46.28
2019-05-15T01:18:52.978Z,45.76
2019-05-15T01:19:52.933Z,46.28
2019-05-15T01:20:52.924Z,46.58
2019-05-15T01:21:53.065Z,46.28
2019-05-15T01:22:52.974Z,46.28
2019-05-15T01:23:52.992Z,46.38
2019-05-15T01:24:52.895Z,46.58
2019-05-15T01:25:52.927Z,46.38
2019-05-15T01:26:52.920Z,46.38
2019-05-15T01:27:52.864Z,46.71
2019-05-15T01:28:52.879Z,47.09
2019-05-15T01:29:52.831Z,46.50
2019-05-15T01:30:52.825Z,46.69
2019-05-15T01:31:52.810Z,46.58
2019-05-15T01:32:52.823Z,46.71
2019-05-15T01:33:52.792Z,46.91
2019-05-15T01:34:52.802Z,46.81
2019-05-15T01:35:52.760Z,47.02
2019-05-15T01:36:52.743Z,47.42
2019-05-15T01:37:52.762Z,46.50
2019-05-15T01:38:52.759Z,46.61
2019-05-15T01:39:52.750Z,47.63
2019-05-15T01:40:52.701Z,47.12
2019-05-15T01:41:52.686Z,47.74
2019-05-15T01:42:52.677Z,46.50
2019-05-15T01:43:52.668Z,47.63
2019-05-15T01:44:52.661Z,47.63
2019-05-15T01:45:52.687Z,47.33
2019-05-15T01:46:52.640Z,47.02
2019-05-15T01:47:52.629Z,47.42
2019-05-15T01:48:52.649Z,47.02
2019-05-15T01:49:52.604Z,47.74
2019-05-15T01:50:52.594Z,47.63
2019-05-15T01:51:52.580Z,47.04
2019-05-15T01:52:52.578Z,46.71
2019-05-15T01:53:52.596Z,47.33
2019-05-15T01:54:52.554Z,48.07
2019-05-15T01:55:52.543Z,47.53
2019-05-15T01:56:52.541Z,47.24
2019-05-15T01:57:52.521Z,47.86
2019-05-15T01:58:52.530Z,48.07
2019-05-15T01:59:57.085Z,47.84
2019-05-15T02:00:53.519Z,48.58
2019-05-15T02:01:52.473Z,48.47
2019-05-15T02:02:52.461Z,48.38
2019-05-15T02:03:52.452Z,48.47
2019-05-15T02:04:52.444Z,48.17
2019-05-15T02:05:52.463Z,48.27
2019-05-15T02:06:52.424Z,48.79
2019-05-15T02:07:52.429Z,48.79
2019-05-15T02:08:52.395Z,49.09
2019-05-15T02:09:52.383Z,48.27
2019-05-15T02:10:52.409Z,48.79
2019-05-15T02:11:52.366Z,48.81
2019-05-15T02:12:52.351Z,48.68
2019-05-15T02:13:52.375Z,48.47
2019-05-15T02:14:52.331Z,48.60
2019-05-15T02:15:52.318Z,48.60
2019-05-15T02:16:52.315Z,48.60
2019-05-15T02:17:52.302Z,48.60
2019-05-15T02:18:52.311Z,48.60
2019-05-15T02:19:52.280Z,48.71
2019-05-15T02:20:52.298Z,49.11
2019-05-15T02:21:52.254Z,49.32
2019-05-15T02:22:52.244Z,49.63
2019-05-15T02:23:52.265Z,49.11
2019-05-15T02:24:52.230Z,49.55
2019-05-15T02:25:52.215Z,49.22
2019-05-15T02:26:52.220Z,50.06
2019-05-15T02:27:52.189Z,49.96
2019-05-15T02:28:52.215Z,49.63
2019-05-15T02:29:52.173Z,49.94
2019-05-15T02:30:52.161Z,49.96
2019-05-15T02:31:52.184Z,49.35
2019-05-15T02:32:52.136Z,49.73
2019-05-15T02:33:52.128Z,50.06
2019-05-15T02:34:52.127Z,49.86
2019-05-15T02:35:52.107Z,49.65
2019-05-15T02:36:52.092Z,49.65
2019-05-15T02:37:52.114Z,49.96
2019-05-15T02:38:52.070Z,50.27
2019-05-15T02:39:52.069Z,50.27
2019-05-15T02:40:52.054Z,50.68
2019-05-15T02:41:52.044Z,50.06
2019-05-15T02:42:52.052Z,49.86
2019-05-15T02:43:52.018Z,50.16
2019-05-15T02:44:52.021Z,50.48
2019-05-15T02:45:52.010Z,50.27
2019-05-15T02:46:51.992Z,50.16
2019-05-15T02:47:52.009Z,50.37
2019-05-15T02:48:51.983Z,50.70
2019-05-15T02:49:51.954Z,50.37
2019-05-15T02:50:51.942Z,50.91
2019-05-15T02:51:51.930Z,50.99
2019-05-15T02:52:51.953Z,51.63
2019-05-15T02:53:51.931Z,51.42
2019-05-15T02:54:51.919Z,51.63
2019-05-15T02:55:51.895Z,51.53
2019-05-15T02:56:51.884Z,51.53
2019-05-15T02:57:51.888Z,51.84
2019-05-15T02:58:51.863Z,51.01
2019-05-15T02:59:51.897Z,51.01
2019-05-15T03:00:53.515Z,51.73
2019-05-15T03:01:51.824Z,50.91
2019-05-15T03:02:51.846Z,51.84
2019-05-15T03:03:51.834Z,51.94
2019-05-15T03:04:51.795Z,51.32
2019-05-15T03:05:51.784Z,52.14
2019-05-15T03:06:51.776Z,52.25
2019-05-15T03:07:51.799Z,52.14
2019-05-15T03:08:51.748Z,52.76
2019-05-15T03:09:51.738Z,52.86
2019-05-15T03:10:51.728Z,53.38
2019-05-15T03:11:51.717Z,52.64
2019-05-15T03:12:51.713Z,53.25
2019-05-15T03:13:51.733Z,52.35
2019-05-15T03:14:51.685Z,52.43
2019-05-15T03:15:51.677Z,51.71
2019-05-15T03:16:51.669Z,51.71
2019-05-15T03:17:51.660Z,50.99
2019-05-15T03:18:55.580Z,51.30
2019-05-15T03:19:51.652Z,52.01
2019-05-15T03:20:51.624Z,51.63
2019-05-15T03:21:51.610Z,51.61
2019-05-15T03:22:51.601Z,51.71
2019-05-15T03:23:51.623Z,51.92
2019-05-15T03:24:51.615Z,51.73
2019-05-15T03:25:51.579Z,51.94
2019-05-15T03:26:51.577Z,52.25
2019-05-15T03:27:51.555Z,52.25
2019-05-15T03:28:51.537Z,52.35
2019-05-15T03:29:51.548Z,52.45
2019-05-15T03:31:15.647Z,52.45
2019-05-15T03:32:07.479Z,52.04
2019-05-15T03:33:00.758Z,52.35
2019-05-15T03:33:54.720Z,52.14
2019-05-15T03:34:56.116Z,52.35
2019-05-15T03:35:54.476Z,52.45
2019-05-15T03:36:53.001Z,52.14
2019-05-15T03:37:51.449Z,52.45
2019-05-15T03:38:51.438Z,52.35
2019-05-15T03:39:52.051Z,52.14
2019-05-15T03:40:51.409Z,53.17
2019-05-15T03:41:51.413Z,52.14
2019-05-15T03:42:51.398Z,52.45
2019-05-15T03:43:51.383Z,52.76
2019-05-15T03:44:51.374Z,52.22
2019-05-15T03:45:51.403Z,52.22
2019-05-15T03:46:51.347Z,52.45
2019-05-15T03:47:51.343Z,52.14
2019-05-15T03:48:51.334Z,52.73
2019-05-15T03:49:51.323Z,52.14
2019-05-15T03:50:51.357Z,52.35
2019-05-15T03:51:51.300Z,52.25
2019-05-15T03:52:51.285Z,52.94
2019-05-15T03:53:51.275Z,52.76
2019-05-15T03:54:51.284Z,52.01
2019-05-15T03:55:51.284Z,53.05
2019-05-15T03:56:51.249Z,52.94
2019-05-15T03:57:51.241Z,53.15
2019-05-15T03:58:51.225Z,52.43
2019-05-15T03:59:51.229Z,52.33
2019-05-15T04:00:51.238Z,52.64
2019-05-15T04:01:51.202Z,52.33
2019-05-15T04:02:51.186Z,52.12
2019-05-15T04:03:51.177Z,53.15
2019-05-15T04:04:51.158Z,52.84
2019-05-15T04:05:51.172Z,52.94
2019-05-15T04:06:51.153Z,52.73
2019-05-15T04:07:51.129Z,52.22
2019-05-15T04:08:51.126Z,52.53
2019-05-15T04:09:51.109Z,53.05
2019-05-15T04:10:51.119Z,53.35
2019-05-15T04:11:51.086Z,52.51
2019-05-15T04:12:51.070Z,52.22
2019-05-15T04:13:51.062Z,53.12
2019-05-15T04:14:51.085Z,53.33
2019-05-15T04:15:51.040Z,52.20
2019-05-15T04:16:51.061Z,51.99
2019-05-15T04:17:51.024Z,52.30
2019-05-15T04:18:51.017Z,52.40
2019-05-15T04:19:51.030Z,52.20
2019-05-15T04:20:51.034Z,51.07
2019-05-15T04:21:50.990Z,51.48
2019-05-15T04:22:50.978Z,51.89
2019-05-15T04:23:50.964Z,50.66
2019-05-15T04:24:50.941Z,52.51
2019-05-15T04:25:50.935Z,51.99
2019-05-15T04:26:50.953Z,52.20
2019-05-15T04:27:50.909Z,53.12
2019-05-15T04:28:50.904Z,52.71
2019-05-15T04:29:50.950Z,52.40
2019-05-15T04:30:50.936Z,52.20
2019-05-15T04:32:00.585Z,50.86
2019-05-15T04:32:51.910Z,51.68
2019-05-15T04:33:50.913Z,51.48
2019-05-15T04:34:50.890Z,52.30
2019-05-15T04:35:50.903Z,52.09
2019-05-15T04:36:50.920Z,52.30
2019-05-15T04:37:50.848Z,51.99
2019-05-15T04:38:50.849Z,51.99
2019-05-15T04:39:50.838Z,51.04
2019-05-15T04:40:50.858Z,50.96
2019-05-15T04:41:50.876Z,51.35
2019-05-15T04:42:50.809Z,54.46
2019-05-15T04:43:50.795Z,54.43
2019-05-15T04:44:50.800Z,53.00
2019-05-15T04:45:50.820Z,51.53
2019-05-15T04:46:50.810Z,50.84
2019-05-15T04:47:50.754Z,51.74
2019-05-15T04:48:50.888Z,50.92
2019-05-15T04:49:50.736Z,51.95
2019-05-15T04:50:50.709Z,50.92
2019-05-15T04:51:50.763Z,51.53
2019-05-15T04:52:50.701Z,50.82
2019-05-15T04:53:50.722Z,50.82
2019-05-15T04:54:50.679Z,51.02
2019-05-15T04:55:50.671Z,50.61
2019-05-15T04:56:51.207Z,51.02
2019-05-15T04:57:50.635Z,50.40
2019-05-15T04:58:51.262Z,50.90
2019-05-15T04:59:50.628Z,49.99
2019-05-15T05:00:50.760Z,51.41
2019-05-15T05:01:53.343Z,50.38
2019-05-15T05:02:51.605Z,50.28
2019-05-15T05:03:50.592Z,50.48
2019-05-15T05:04:50.572Z,50.59
2019-05-15T05:05:50.670Z,49.66
2019-05-15T05:06:50.611Z,49.56
2019-05-15T05:07:50.547Z,50.26
2019-05-15T05:08:50.521Z,49.85
2019-05-15T05:09:50.523Z,49.87
2019-05-15T05:10:50.511Z,49.64
2019-05-15T05:11:50.454Z,49.13
2019-05-15T05:12:51.017Z,49.64
2019-05-15T05:13:51.779Z,49.54
2019-05-15T05:14:50.404Z,49.64
2019-05-15T05:15:50.785Z,49.33
2019-05-15T05:16:50.433Z,49.64
2019-05-15T05:17:50.369Z,49.64
2019-05-15T05:18:50.356Z,49.85
2019-05-15T05:19:51.414Z,49.21
2019-05-15T05:20:50.342Z,49.62
2019-05-15T05:21:50.362Z,49.82
2019-05-15T05:22:50.313Z,50.34
2019-05-15T05:23:50.305Z,49.21
2019-05-15T05:24:50.298Z,49.82
2019-05-15T05:25:50.286Z,50.13
2019-05-15T05:26:50.310Z,49.41
2019-05-15T05:27:50.266Z,48.98
2019-05-15T05:28:50.255Z,48.98
2019-05-15T05:29:50.238Z,49.18
2019-05-15T05:30:50.229Z,49.69
2019-05-15T05:31:50.250Z,49.41
2019-05-15T05:32:50.213Z,48.67
2019-05-15T05:33:50.201Z,48.47
2019-05-15T05:34:50.193Z,48.47
2019-05-15T05:35:50.179Z,48.36
2019-05-15T05:36:50.164Z,48.16
2019-05-15T05:37:50.186Z,48.67
2019-05-15T05:38:50.149Z,48.36
2019-05-15T05:39:50.137Z,48.26
2019-05-15T05:40:50.269Z,48.16
2019-05-15T05:41:50.143Z,48.14
2019-05-15T05:42:50.101Z,48.44
2019-05-15T05:43:50.088Z,49.37
2019-05-15T05:44:50.099Z,48.65
2019-05-15T05:45:50.103Z,48.75
2019-05-15T05:46:50.063Z,48.34
2019-05-15T05:47:50.075Z,47.63
2019-05-15T05:48:50.040Z,47.93
2019-05-15T05:49:50.025Z,48.63
2019-05-15T05:50:50.336Z,48.42
2019-05-15T05:51:50.004Z,48.01
2019-05-15T05:52:50.029Z,47.91
2019-05-15T05:53:50.600Z,47.50
2019-05-15T05:54:50.002Z,48.83
2019-05-15T05:55:52.920Z,48.50
2019-05-15T05:56:49.980Z,47.99
2019-05-15T05:57:50.175Z,47.58
2019-05-15T05:58:49.933Z,46.66
2019-05-15T05:59:49.925Z,46.66
2019-05-15T06:00:49.965Z,46.66
2019-05-15T06:01:49.898Z,46.86
2019-05-15T06:02:52.315Z,46.45
2019-05-15T06:03:49.876Z,47.58
2019-05-15T06:04:49.868Z,46.74
2019-05-15T06:05:50.070Z,46.12
2019-05-15T06:07:06.037Z,46.12
2019-05-15T06:07:51.182Z,47.05
2019-05-15T06:08:49.820Z,47.45
2019-05-15T06:09:49.809Z,45.82
2019-05-15T06:10:50.097Z,46.44
2019-05-15T06:11:49.829Z,46.12
2019-05-15T06:12:49.836Z,46.33
2019-05-15T06:13:52.449Z,45.82
2019-05-15T06:14:49.756Z,46.21
2019-05-15T06:15:49.747Z,44.67
2019-05-15T06:16:49.739Z,45.90
2019-05-15T06:17:49.760Z,46.08
2019-05-15T06:18:49.719Z,45.98
2019-05-15T06:19:49.708Z,45.47
2019-05-15T06:20:50.124Z,45.57
2019-05-15T06:21:56.741Z,44.45
2019-05-15T06:22:50.736Z,44.65
2019-05-15T06:23:55.781Z,45.14
2019-05-15T06:24:50.658Z,45.25
2019-05-15T06:25:49.662Z,44.84
2019-05-15T06:26:49.629Z,45.55
2019-05-15T06:27:49.641Z,46.06
2019-05-15T06:28:49.614Z,46.34
2019-05-15T06:29:49.602Z,45.63
2019-05-15T06:30:49.718Z,44.71
2019-05-15T06:31:49.583Z,45.12
2019-05-15T06:33:04.457Z,44.81
2019-05-15T06:33:50.555Z,44.59
2019-05-15T06:34:49.545Z,43.98
2019-05-15T06:35:49.545Z,44.18
2019-05-15T06:36:49.565Z,43.88
2019-05-15T06:37:49.549Z,44.57
2019-05-15T06:38:49.508Z,43.75
2019-05-15T06:39:49.577Z,43.73
2019-05-15T06:40:49.490Z,43.32
2019-05-15T06:41:49.470Z,44.04
2019-05-15T06:42:49.497Z,43.20
2019-05-15T06:43:49.806Z,41.78
2019-05-15T06:44:49.629Z,42.16
2019-05-15T06:45:49.632Z,41.86
2019-05-15T06:46:49.560Z,42.25
2019-05-15T06:47:49.440Z,42.35
2019-05-15T06:48:49.507Z,41.94
2019-05-15T06:49:49.467Z,41.61
2019-05-15T06:50:49.561Z,42.13
2019-05-15T06:51:49.431Z,41.41
2019-05-15T06:52:49.465Z,41.80
2019-05-15T06:53:49.415Z,41.39
2019-05-15T06:54:49.387Z,41.29
2019-05-15T06:55:49.385Z,41.80
2019-05-15T06:56:49.476Z,42.39
2019-05-15T06:57:49.438Z,42.39
2019-05-15T06:58:49.308Z,41.58
2019-05-15T06:59:49.329Z,41.68
2019-05-15T07:00:49.752Z,40.66
2019-05-15T07:01:49.378Z,40.64
2019-05-15T07:02:49.378Z,40.44
2019-05-15T07:03:49.315Z,39.02
2019-05-15T07:04:49.292Z,40.54
2019-05-15T07:05:50.596Z,41.13
2019-05-15T07:06:49.267Z,39.81
2019-05-15T07:07:49.252Z,39.30
2019-05-15T07:08:49.879Z,39.71
2019-05-15T07:09:49.236Z,40.62
2019-05-15T07:10:49.246Z,40.23
2019-05-15T07:11:49.212Z,40.44
2019-05-15T07:12:51.552Z,39.62
2019-05-15T07:13:49.240Z,40.84
2019-05-15T07:14:49.165Z,40.14
2019-05-15T07:15:49.851Z,40.14
2019-05-15T07:16:49.168Z,39.73
2019-05-15T07:17:49.157Z,39.53
2019-05-15T07:18:49.403Z,38.90
2019-05-15T07:19:49.124Z,38.98
2019-05-15T07:20:49.278Z,38.78
2019-05-15T07:21:49.099Z,39.06
2019-05-15T07:22:49.284Z,38.25
2019-05-15T07:23:49.780Z,38.66
2019-05-15T07:24:49.046Z,38.37
2019-05-15T07:25:50.008Z,37.96
2019-05-15T07:26:49.094Z,37.54
2019-05-15T07:27:49.019Z,37.44
2019-05-15T07:28:49.080Z,37.54
2019-05-15T07:29:49.005Z,37.52
2019-05-15T07:30:49.697Z,37.51
2019-05-15T07:31:48.929Z,35.26
2019-05-15T07:32:48.933Z,34.53
2019-05-15T07:33:49.339Z,35.65
2019-05-15T07:34:48.975Z,34.62
2019-05-15T07:35:49.610Z,33.80
2019-05-15T07:36:49.412Z,33.59
2019-05-15T07:37:48.868Z,33.37
2019-05-15T07:38:48.890Z,32.36
2019-05-15T07:39:48.999Z,30.82
2019-05-15T07:40:55.681Z,29.98
2019-05-15T07:41:49.829Z,28.89
2019-05-15T07:42:49.207Z,27.54
2019-05-15T07:43:50.606Z,26.54
2019-05-15T07:44:48.794Z,27.44
2019-05-15T07:45:53.558Z,27.84
2019-05-15T07:46:49.872Z,27.86
2019-05-15T07:47:49.075Z,27.06
2019-05-15T07:48:49.266Z,27.67
2019-05-15T07:49:49.294Z,27.16
2019-05-15T07:50:49.754Z,26.87
2019-05-15T07:51:48.999Z,27.08
2019-05-15T07:52:48.719Z,26.59
2019-05-15T07:53:49.170Z,27.70
2019-05-15T07:54:48.919Z,27.20
2019-05-15T07:55:50.258Z,27.29
2019-05-15T07:56:48.959Z,26.59
2019-05-15T07:57:49.656Z,27.49
2019-05-15T07:58:52.571Z,26.59
2019-05-15T07:59:48.632Z,28.09
2019-05-15T08:00:49.325Z,25.96
2019-05-15T08:01:49.015Z,26.67
2019-05-15T08:02:48.598Z,26.87
2019-05-15T08:03:58.971Z,25.96
2019-05-15T08:04:49.581Z,25.26
2019-05-15T08:05:58.654Z,25.02
2019-05-15T08:06:49.627Z,24.49
2019-05-15T08:07:49.133Z,23.05
2019-05-15T08:08:48.846Z,22.12
2019-05-15T08:09:48.799Z,22.08
2019-05-15T08:10:49.207Z,21.23
2019-05-15T08:11:48.849Z,20.10
2019-05-15T08:12:49.438Z,19.78
2019-05-15T08:13:48.761Z,20.09
2019-05-15T08:14:50.867Z,19.90
2019-05-15T08:15:48.981Z,19.92
2019-05-15T08:16:48.676Z,20.92
2019-05-15T08:18:49.429Z,20.64
2019-05-15T08:19:48.734Z,20.51
2019-05-15T08:20:49.213Z,19.70
2019-05-15T08:21:51.789Z,19.49
2019-05-15T08:22:49.054Z,19.89
2019-05-15T08:23:48.649Z,19.79
2019-05-15T08:24:48.524Z,20.68
2019-05-15T08:25:48.757Z,20.17
2019-05-15T08:26:05.717Z,20.54
2019-05-15T08:26:48.775Z,19.56
2019-05-15T08:27:48.628Z,18.66
2019-05-15T08:28:48.861Z,17.95
2019-05-15T08:29:48.700Z,18.43
2019-05-15T08:30:49.307Z,18.03
2019-05-15T08:31:48.553Z,17.95
2019-05-15T08:32:51.361Z,19.37
2019-05-15T08:33:48.365Z,19.88
2019-05-15T08:34:48.260Z,20.31
2019-05-15T08:35:51.579Z,20.92
2019-05-15T08:36:48.459Z,21.33
2019-05-15T08:37:49.046Z,21.74
2019-05-15T08:38:48.729Z,22.35
2019-05-15T08:39:48.752Z,21.55
2019-05-15T08:40:49.001Z,21.33
2019-05-15T08:41:48.555Z,21.33
2019-05-15T08:42:56.525Z,21.63
2019-05-15T08:43:49.171Z,22.64
2019-05-15T08:44:48.976Z,21.84
2019-05-15T08:45:49.751Z,21.55
2019-05-15T08:46:48.220Z,21.31
2019-05-15T08:47:49.204Z,21.11
2019-05-15T08:48:49.091Z,20.83
2019-05-15T08:49:48.469Z,21.42
2019-05-15T08:50:48.968Z,20.72
2019-05-15T08:51:48.654Z,20.09
2019-05-15T08:52:48.812Z,19.69
2019-05-15T08:53:48.779Z,18.98
2019-05-15T08:54:48.603Z,20.19
2019-05-15T08:55:48.234Z,19.80
2019-05-15T08:56:48.539Z,21.11
2019-05-15T08:57:55.615Z,20.53
2019-05-15T08:58:49.050Z,21.73
2019-05-15T08:59:48.808Z,21.95
2019-05-15T09:00:52.303Z,22.45
2019-05-15T09:01:48.936Z,20.97
2019-05-15T09:02:48.824Z,22.16
2019-05-15T09:03:48.879Z,22.25
2019-05-15T09:04:48.676Z,22.06
2019-05-15T09:05:48.713Z,22.88
2019-05-15T09:06:49.739Z,22.78
2019-05-15T09:07:48.712Z,22.08
2019-05-15T09:08:49.097Z,21.88
2019-05-15T09:09:48.732Z,20.65
2019-05-15T09:10:50.232Z,21.26
2019-05-15T09:11:48.382Z,21.97
2019-05-15T09:12:50.200Z,21.36
2019-05-15T09:13:53.805Z,19.71
2019-05-15T09:14:48.867Z,20.05
2019-05-15T09:15:48.286Z,18.66
2019-05-15T09:16:49.021Z,18.67
2019-05-15T09:17:48.773Z,18.79
2019-05-15T09:18:48.595Z,20.00
2019-05-15T09:19:48.275Z,20.01
2019-05-15T09:20:49.153Z,20.12
2019-05-15T09:21:49.120Z,20.51
2019-05-15T09:22:49.062Z,18.88
2019-05-15T09:23:49.812Z,18.35
2019-05-15T09:24:48.887Z,17.61
2019-05-15T09:25:49.293Z,17.79
2019-05-15T09:26:48.748Z,17.16
2019-05-15T09:27:48.792Z,17.16
2019-05-15T09:28:49.389Z,17.57
2019-05-15T09:29:48.444Z,16.97
2019-05-15T09:30:48.299Z,17.27
2019-05-15T09:31:48.280Z,16.38
2019-05-15T09:32:48.425Z,16.05
2019-05-15T09:33:49.266Z,15.82
2019-05-15T09:34:54.205Z,15.30
2019-05-15T09:35:49.219Z,15.08
2019-05-15T09:36:48.617Z,14.90
2019-05-15T09:37:48.851Z,15.33
2019-05-15T09:38:49.148Z,16.63
2019-05-15T09:39:48.981Z,16.07
2019-05-15T09:40:50.156Z,16.77
2019-05-15T09:41:48.754Z,17.16
2019-05-15T09:42:48.715Z,17.44
2019-05-15T09:43:48.509Z,17.39
2019-05-15T09:44:48.660Z,17.51
2019-05-15T09:45:49.259Z,18.33
2019-05-15T09:46:48.868Z,18.54
2019-05-15T09:47:48.320Z,18.84
2019-05-15T09:48:51.403Z,18.14
2019-05-15T09:49:48.519Z,18.04
2019-05-15T09:50:49.229Z,19.14
2019-05-15T09:51:49.045Z,18.85
2019-05-15T09:52:50.116Z,20.05
2019-05-15T09:53:48.403Z,19.57
2019-05-15T09:54:49.059Z,19.67
2019-05-15T09:55:49.365Z,19.78
2019-05-15T09:56:49.405Z,19.88
2019-05-15T09:57:49.119Z,20.68
2019-05-15T09:58:48.797Z,20.49
2019-05-15T09:59:48.789Z,19.90
2019-05-15T10:00:52.336Z,20.11
2019-05-15T10:01:48.467Z,21.01
2019-05-15T10:02:48.518Z,20.70
2019-05-15T10:03:48.463Z,21.19
2019-05-15T10:04:49.590Z,20.71
2019-05-15T10:05:48.461Z,20.61
2019-05-15T10:06:48.606Z,21.62
2019-05-15T10:07:47.340Z,23.03
2019-05-15T10:08:49.016Z,22.75
2019-05-15T10:09:48.783Z,22.96
2019-05-15T10:10:48.731Z,23.58
2019-05-15T10:11:49.178Z,23.80
2019-05-15T10:12:49.480Z,24.49
2019-05-15T10:13:47.246Z,25.11
2019-05-15T10:14:49.181Z,25.12
2019-05-15T10:15:50.653Z,25.13
2019-05-15T10:16:48.623Z,25.33
2019-05-15T10:17:50.763Z,25.33
2019-05-15T10:18:50.812Z,24.73
2019-05-15T10:19:48.804Z,25.04
2019-05-15T10:20:47.173Z,25.24
2019-05-15T10:21:53.044Z,26.25
2019-05-15T10:22:48.471Z,25.76
2019-05-15T10:23:49.401Z,26.56
2019-05-15T10:24:50.889Z,26.16
2019-05-15T10:25:48.573Z,24.85
2019-05-15T10:26:49.047Z,24.85
2019-05-15T10:27:48.768Z,26.26
2019-05-15T10:28:49.333Z,25.85
2019-05-15T10:29:48.435Z,24.76
2019-05-15T10:30:49.339Z,26.54
2019-05-15T10:31:48.244Z,26.04
2019-05-15T10:32:48.681Z,26.25
2019-05-15T10:33:49.118Z,26.16
2019-05-15T10:34:47.062Z,26.06
2019-05-15T10:35:47.014Z,26.35
2019-05-15T10:36:49.375Z,26.17
2019-05-15T10:37:48.707Z,27.17
2019-05-15T10:38:48.893Z,26.87
2019-05-15T10:39:52.076Z,26.07
2019-05-15T10:41:00.206Z,26.68
2019-05-15T10:41:48.324Z,27.19
2019-05-15T10:42:49.453Z,26.98
2019-05-15T10:43:55.632Z,26.50
2019-05-15T10:44:48.800Z,26.79
2019-05-15T10:45:50.115Z,26.91
2019-05-15T10:46:48.254Z,28.22
2019-05-15T10:47:49.400Z,27.12
2019-05-15T10:48:49.401Z,27.12
2019-05-15T10:49:48.415Z,28.85
2019-05-15T10:50:46.885Z,28.55
2019-05-15T10:51:46.838Z,29.16
2019-05-15T10:52:48.938Z,28.76
2019-05-15T10:53:48.714Z,28.45
2019-05-15T10:54:46.810Z,29.26
2019-05-15T10:55:49.226Z,30.18
2019-05-15T10:56:46.787Z,29.68
2019-05-15T10:57:46.799Z,30.08
2019-05-15T10:58:50.128Z,30.38
2019-05-15T10:59:47.799Z,29.16
2019-05-15T11:00:49.274Z,29.17
2019-05-15T11:01:48.772Z,29.98
2019-05-15T11:02:48.879Z,30.08
2019-05-15T11:03:49.250Z,30.28
2019-05-15T11:04:48.721Z,30.08
2019-05-15T11:05:48.953Z,29.98
2019-05-15T11:06:48.875Z,30.58
2019-05-15T11:07:48.228Z,29.99
2019-05-15T11:08:51.000Z,30.50
2019-05-15T11:09:48.957Z,29.79
2019-05-15T11:10:49.427Z,31.12
2019-05-15T11:11:48.674Z,30.41
2019-05-15T11:12:46.635Z,30.11
2019-05-15T11:13:46.612Z,29.81
2019-05-15T11:14:46.593Z,30.43
2019-05-15T11:15:48.876Z,30.93
2019-05-15T11:16:48.696Z,30.82
2019-05-15T11:17:48.961Z,30.71
2019-05-15T11:18:48.196Z,30.41
2019-05-15T11:19:49.919Z,30.63
2019-05-15T11:20:48.691Z,30.63
2019-05-15T11:21:48.545Z,30.32
2019-05-15T11:22:49.643Z,30.12
2019-05-15T11:23:49.198Z,30.12
2019-05-15T11:24:48.706Z,30.12
2019-05-15T11:25:48.473Z,29.94
2019-05-15T11:26:49.649Z,29.94
2019-05-15T11:27:48.384Z,30.34
2019-05-15T11:28:49.422Z,30.64
2019-05-15T11:29:47.772Z,30.86
2019-05-15T11:30:48.924Z,31.04
2019-05-15T11:31:48.602Z,30.15
2019-05-15T11:32:48.706Z,30.46
2019-05-15T11:33:49.096Z,29.95
2019-05-15T11:34:49.099Z,30.05
2019-05-15T11:35:57.884Z,29.95
2019-05-15T11:36:48.243Z,30.35
2019-05-15T11:37:48.873Z,30.26
2019-05-15T11:38:48.609Z,30.55
2019-05-15T11:39:47.225Z,30.15
2019-05-15T11:40:46.313Z,30.96
2019-05-15T11:41:49.019Z,30.55
2019-05-15T11:42:48.573Z,30.55
2019-05-15T11:43:46.282Z,30.46
2019-05-15T11:44:48.419Z,29.94
2019-05-15T11:45:48.209Z,30.04
2019-05-15T11:46:46.250Z,30.02
2019-05-15T11:47:48.260Z,29.21
2019-05-15T11:48:46.235Z,29.21
2019-05-15T11:49:46.231Z,29.09
2019-05-15T11:50:46.213Z,29.39
2019-05-15T11:51:46.205Z,29.07
2019-05-15T11:52:46.216Z,29.07
2019-05-15T11:53:46.174Z,28.97
2019-05-15T11:54:46.165Z,28.96
2019-05-15T11:55:48.147Z,29.57
2019-05-15T11:56:48.722Z,28.56
2019-05-15T11:57:50.370Z,28.44
2019-05-15T11:58:47.132Z,28.66
2019-05-15T11:59:48.528Z,28.64
2019-05-15T12:00:48.991Z,28.55
2019-05-15T12:01:46.090Z,29.05
2019-05-15T12:02:46.094Z,29.05
2019-05-15T12:03:46.100Z,28.34
2019-05-15T12:04:46.061Z,28.64
2019-05-15T12:05:46.050Z,28.44
2019-05-15T12:06:58.299Z,28.14
2019-05-15T12:07:47.802Z,29.05
2019-05-15T12:08:46.056Z,29.57
2019-05-15T12:09:46.014Z,30.36
2019-05-15T12:10:46.003Z,30.16
2019-05-15T12:11:46.065Z,29.36
2019-05-15T12:12:46.000Z,29.16
2019-05-15T12:13:45.972Z,28.45
2019-05-15T12:14:46.015Z,28.76
2019-05-15T12:15:48.248Z,28.76
2019-05-15T12:17:04.705Z,29.17
2019-05-15T12:17:48.502Z,29.17
2019-05-15T12:18:48.222Z,29.69
2019-05-15T12:19:54.793Z,29.19
2019-05-15T12:20:48.644Z,29.49
2019-05-15T12:21:48.598Z,29.79
2019-05-15T12:22:48.350Z,29.19
2019-05-15T12:23:48.324Z,29.49
2019-05-15T12:24:49.519Z,29.39
2019-05-15T12:25:48.540Z,29.19
2019-05-15T12:26:48.705Z,29.19
2019-05-15T12:27:48.853Z,29.29
2019-05-15T12:28:45.814Z,30.19
2019-05-15T12:29:48.960Z,30.40
2019-05-15T12:30:45.788Z,30.30
2019-05-15T12:31:45.777Z,29.99
2019-05-15T12:32:49.029Z,30.10
2019-05-15T12:33:45.763Z,30.21
2019-05-15T12:34:45.747Z,30.11
2019-05-15T12:35:45.769Z,30.11
2019-05-15T12:36:53.181Z,30.11
2019-05-15T12:37:46.708Z,30.31
2019-05-15T12:38:50.019Z,29.92
2019-05-15T12:39:45.695Z,30.32
2019-05-15T12:59:46.497Z,31.24
2019-05-15T13:00:45.527Z,30.74
2019-05-15T13:01:45.494Z,30.34
2019-05-15T13:02:45.446Z,30.14
2019-05-15T13:03:45.437Z,29.94
2019-05-15T13:04:45.421Z,30.24
2019-05-15T13:05:45.407Z,29.83
2019-05-15T13:06:49.492Z,30.04
2019-05-15T13:07:48.260Z,30.44
2019-05-15T13:08:45.378Z,30.14
2019-05-15T13:09:45.378Z,30.04
2019-05-15T13:10:45.355Z,30.14
2019-05-15T13:11:45.377Z,30.34